Time;durP1;ratioP1;P1;durP2;ratioP2;P2;SDS_P1;SDS_P2;PMS_P1;PMS_P2;Temp;Humidity;BMP_temperature;BMP_pressure;BME280_temperature;BME280_humidity;BME280_pressure;Samples;Min_cycle;Max_cycle;Signal;HPM_P1;HPM_P2
2022/05/05 00:00:38;;;;;;;21.48;9.48;;;10.20;99.90;;;;;;5053651;28;20112;-65
2022/05/05 00:03:03;;;;;;;21.15;9.55;;;10.10;99.90;;;;;;5053324;28;20044;-66
2022/05/05 00:05:30;;;;;;;22.02;9.32;;;10.20;99.90;;;;;;5053424;28;20025;-66
2022/05/05 00:07:55;;;;;;;25.15;11.00;;;10.10;99.90;;;;;;5053252;28;20577;-66
2022/05/05 00:15:49;;;;;;;23.33;10.45;;;10.20;99.90;;;;;;5053541;28;20107;-66
2022/05/05 00:18:15;;;;;;;23.17;9.75;;;10.20;99.90;;;;;;5053547;28;20028;-66
2022/05/05 00:20:42;;;;;;;26.38;9.60;;;10.20;99.90;;;;;;5053661;28;20037;-66
2022/05/05 00:23:07;;;;;;;26.90;11.27;;;10.10;99.90;;;;;;5053604;28;20029;-66
2022/05/05 00:25:33;;;;;;;20.95;9.65;;;10.10;99.90;;;;;;5053578;28;20277;-66
2022/05/05 00:27:59;;;;;;;25.38;11.00;;;10.10;99.90;;;;;;5053388;28;20397;-65
2022/05/05 00:30:26;;;;;;;27.30;10.85;;;10.00;99.90;;;;;;5053488;28;20481;-65
2022/05/05 00:32:52;;;;;;;19.98;9.57;;;10.00;99.90;;;;;;5053186;28;20060;-65
2022/05/05 00:35:18;;;;;;;26.52;10.60;;;10.00;99.90;;;;;;5052285;28;20490;-65
2022/05/05 00:37:43;;;;;;;29.48;10.85;;;10.00;99.90;;;;;;5052965;28;20040;-65
2022/05/05 00:40:09;;;;;;;29.63;11.98;;;10.00;99.90;;;;;;5053227;28;20029;-65
2022/05/05 00:42:36;;;;;;;31.77;11.93;;;10.00;99.90;;;;;;5052922;28;20041;-65
2022/05/05 00:45:03;;;;;;;32.07;12.23;;;9.90;99.90;;;;;;5052906;28;20037;-65
2022/05/05 00:47:28;;;;;;;28.75;10.70;;;9.90;99.90;;;;;;5052726;28;20044;-65
2022/05/05 00:49:56;;;;;;;30.17;10.52;;;9.90;99.90;;;;;;5052708;28;20417;-65
2022/05/05 00:52:21;;;;;;;22.75;10.90;;;9.80;99.90;;;;;;5052764;28;20084;-65
2022/05/05 00:54:47;;;;;;;27.40;10.98;;;9.80;99.90;;;;;;5052030;28;20433;-64
2022/05/05 00:57:13;;;;;;;20.23;9.68;;;9.80;99.90;;;;;;5052976;28;20037;-65
2022/05/05 00:59:40;;;;;;;19.02;8.90;;;9.80;99.90;;;;;;5052549;28;20098;-65
2022/05/05 01:02:06;;;;;;;23.48;9.23;;;9.70;99.90;;;;;;5052068;28;20061;-65
2022/05/05 01:04:32;;;;;;;19.23;8.65;;;9.60;99.90;;;;;;5052475;28;20068;-65
2022/05/05 01:06:59;;;;;;;23.80;8.23;;;9.60;99.90;;;;;;5052415;28;20509;-65
2022/05/05 01:09:25;;;;;;;17.60;9.20;;;9.60;99.90;;;;;;5052750;28;20037;-66
2022/05/05 01:11:51;;;;;;;16.73;8.38;;;9.50;99.90;;;;;;5052424;28;20029;-65
2022/05/05 01:14:17;;;;;;;19.90;8.85;;;9.40;99.90;;;;;;5052645;28;20036;-65
2022/05/05 01:16:43;;;;;;;18.48;8.90;;;9.30;99.90;;;;;;5052332;28;20048;-65
2022/05/05 01:19:09;;;;;;;21.33;9.55;;;9.20;99.90;;;;;;5052249;28;20500;-65
2022/05/05 01:21:35;;;;;;;23.52;9.95;;;9.20;99.90;;;;;;5052125;28;20477;-65
2022/05/05 01:24:00;;;;;;;24.20;10.63;;;9.20;99.90;;;;;;5034402;28;20029;-65
2022/05/05 01:29:11;;;;;;;23.35;10.13;;;9.20;99.90;;;;;;5052724;28;20048;-65
2022/05/05 01:31:38;;;;;;;19.60;9.40;;;9.20;99.90;;;;;;5052631;28;20032;-65
2022/05/05 01:34:04;;;;;;;19.75;9.05;;;9.20;99.90;;;;;;5052874;28;20041;-65
2022/05/05 01:36:30;;;;;;;19.42;8.88;;;9.20;99.90;;;;;;5052604;28;20052;-65
2022/05/05 01:38:56;;;;;;;16.73;7.90;;;9.10;99.90;;;;;;5052540;28;20087;-65
2022/05/05 01:41:21;;;;;;;18.13;8.20;;;9.10;99.90;;;;;;5052179;28;20523;-64
2022/05/05 01:43:47;;;;;;;16.33;8.07;;;9.10;99.90;;;;;;5052231;28;20119;-65
2022/05/05 01:46:16;;;;;;;16.05;8.07;;;9.10;99.90;;;;;;5036516;28;20059;-65
2022/05/05 01:48:42;;;;;;;16.13;8.40;;;9.10;99.90;;;;;;5056147;28;20500;-65
2022/05/05 01:51:08;;;;;;;17.48;8.10;;;9.10;99.90;;;;;;5056069;28;20042;-65
2022/05/05 01:53:37;;;;;;;13.70;7.47;;;9.00;99.90;;;;;;5056111;28;20037;-65
2022/05/05 01:56:13;;;;;;;12.27;6.72;;;9.10;99.90;;;;;;5056015;28;20496;-65
2022/05/05 01:58:44;;;;;;;14.43;7.32;;;9.00;99.90;;;;;;5038187;28;20143;-65
2022/05/05 02:01:11;;;;;;;12.80;7.65;;;9.00;99.90;;;;;;5056158;28;20036;-65
2022/05/05 02:03:37;;;;;;;17.27;9.10;;;8.90;99.90;;;;;;5055697;28;20524;-65
2022/05/05 02:06:03;;;;;;;17.38;8.80;;;8.90;99.90;;;;;;5055992;28;20117;-66
2022/05/05 02:08:28;;;;;;;15.98;7.38;;;8.80;99.90;;;;;;5037866;28;20487;-65
2022/05/05 02:10:55;;;;;;;16.10;7.60;;;8.80;99.90;;;;;;5055765;28;20059;-65
2022/05/05 02:13:21;;;;;;;16.05;7.55;;;8.80;99.90;;;;;;5055852;28;20112;-65
2022/05/05 02:15:47;;;;;;;17.42;7.45;;;8.80;99.90;;;;;;5055719;28;20460;-65
2022/05/05 02:18:13;;;;;;;17.80;7.57;;;8.70;99.90;;;;;;5037831;28;20056;-65
2022/05/05 02:20:40;;;;;;;16.90;7.20;;;8.80;99.90;;;;;;5055619;28;20087;-65
2022/05/05 02:23:07;;;;;;;12.63;7.13;;;8.80;99.90;;;;;;5055818;28;20029;-65
2022/05/05 02:25:33;;;;;;;14.55;7.22;;;8.70;99.90;;;;;;5055306;28;20035;-65
2022/05/05 02:28:00;;;;;;;14.75;7.13;;;8.70;99.90;;;;;;5055469;28;20486;-65
2022/05/05 02:30:27;;;;;;;13.23;6.88;;;8.70;99.90;;;;;;5055548;28;20047;-65
2022/05/05 02:32:53;;;;;;;16.65;7.70;;;8.70;99.90;;;;;;5055542;28;20033;-65
2022/05/05 02:35:19;;;;;;;15.38;6.90;;;8.60;99.90;;;;;;5055420;28;20397;-65
2022/05/05 02:40:30;;;;;;;13.25;7.32;;;8.50;99.90;;;;;;5055379;28;20186;-65
2022/05/05 02:42:58;;;;;;;12.07;7.25;;;8.50;99.90;;;;;;5055592;28;20051;-65
2022/05/05 02:45:24;;;;;;;14.00;7.13;;;8.50;99.90;;;;;;5055209;28;20533;-65
2022/05/05 02:47:50;;;;;;;12.60;6.30;;;8.50;99.90;;;;;;5053851;28;20401;-64
2022/05/05 02:50:17;;;;;;;12.68;6.85;;;8.40;99.90;;;;;;5037086;28;20029;-65
2022/05/05 02:52:43;;;;;;;17.80;6.65;;;8.40;99.90;;;;;;5055125;28;20025;-66
2022/05/05 02:55:09;;;;;;;15.15;7.80;;;8.30;99.90;;;;;;5055173;28;20029;-65
2022/05/05 02:57:35;;;;;;;14.60;7.03;;;8.30;99.90;;;;;;5054190;28;20405;-65
2022/05/05 03:00:02;;;;;;;14.23;6.47;;;8.30;99.90;;;;;;5036956;28;20199;-65
2022/05/05 03:02:29;;;;;;;13.38;7.00;;;8.30;99.90;;;;;;5054650;28;20044;-65
2022/05/05 03:04:54;;;;;;;9.15;4.95;;;8.30;99.90;;;;;;5054391;28;20044;-65
2022/05/05 03:07:22;;;;;;;14.15;6.40;;;8.30;99.90;;;;;;5054500;28;20029;-65
2022/05/05 03:09:47;;;;;;;12.73;6.32;;;8.30;99.90;;;;;;5054287;28;20473;-65
2022/05/05 03:12:13;;;;;;;11.63;5.85;;;8.30;99.90;;;;;;5054517;28;20033;-64
2022/05/05 03:14:39;;;;;;;10.68;5.75;;;8.20;99.90;;;;;;5054281;28;20061;-65
2022/05/05 03:17:05;;;;;;;14.05;6.32;;;8.30;99.90;;;;;;5036397;28;20037;-64
2022/05/05 03:19:31;;;;;;;13.88;6.32;;;8.30;99.90;;;;;;5054200;28;20071;-65
2022/05/05 03:21:57;;;;;;;13.55;6.22;;;8.20;99.90;;;;;;5054111;28;20036;-65
2022/05/05 03:24:23;;;;;;;12.77;5.75;;;8.20;99.90;;;;;;5054262;28;20083;-65
2022/05/05 03:26:49;;;;;;;11.88;5.60;;;8.20;99.90;;;;;;5054189;28;20432;-65
2022/05/05 03:29:14;;;;;;;12.85;6.78;;;8.20;99.90;;;;;;5054054;28;20120;-65
2022/05/05 03:31:40;;;;;;;11.30;5.72;;;8.20;99.90;;;;;;5054052;28;20029;-65
2022/05/05 03:34:06;;;;;;;13.57;6.35;;;8.10;99.90;;;;;;5053919;28;20481;-65
2022/05/05 03:36:32;;;;;;;14.50;6.18;;;8.10;99.90;;;;;;5053920;28;20406;-64
2022/05/05 03:38:58;;;;;;;12.25;6.10;;;8.10;99.90;;;;;;5053829;28;20523;-65
2022/05/05 03:41:23;;;;;;;11.35;5.82;;;8.00;99.90;;;;;;5054077;28;20073;-64
2022/05/05 03:43:49;;;;;;;11.18;6.13;;;8.10;99.90;;;;;;5053806;28;20037;-65
2022/05/05 03:46:15;;;;;;;16.00;5.90;;;8.10;99.90;;;;;;5054165;28;20048;-65
2022/05/05 03:48:40;;;;;;;10.90;5.63;;;8.10;99.90;;;;;;5035562;28;20037;-65
2022/05/05 03:51:06;;;;;;;11.57;5.35;;;8.10;99.90;;;;;;5053555;28;20047;-65
2022/05/05 03:53:33;;;;;;;12.23;6.40;;;8.00;99.90;;;;;;5053627;28;20041;-65
2022/05/05 03:55:58;;;;;;;10.55;5.95;;;8.00;99.90;;;;;;5053580;28;20060;-65
2022/05/05 03:58:26;;;;;;;10.60;5.50;;;7.90;99.90;;;;;;5053557;28;20469;-65
2022/05/05 04:00:51;;;;;;;12.27;5.18;;;7.90;99.90;;;;;;5053327;28;20064;-65
2022/05/05 04:03:33;;;;;;;14.13;6.18;;;7.80;99.90;;;;;;5053147;28;20041;-65
2022/05/05 04:06:01;;;;;;;11.63;5.97;;;7.80;99.90;;;;;;5053246;28;20029;-65
2022/05/05 04:08:27;;;;;;;10.02;5.65;;;7.80;99.90;;;;;;5053016;28;20436;-65
2022/05/05 04:10:53;;;;;;;11.90;5.82;;;7.80;99.90;;;;;;5053216;28;20086;-65
2022/05/05 04:13:19;;;;;;;13.25;5.97;;;7.70;99.90;;;;;;5053323;28;20103;-65
2022/05/05 04:15:45;;;;;;;13.50;6.20;;;7.70;99.90;;;;;;5053154;28;20528;-65
2022/05/05 04:18:11;;;;;;;11.82;6.88;;;7.70;99.90;;;;;;5035132;28;20029;-65
2022/05/05 04:20:37;;;;;;;14.35;6.43;;;7.70;99.90;;;;;;5052900;28;20036;-65
2022/05/05 04:23:02;;;;;;;13.07;6.32;;;7.80;99.90;;;;;;5053143;28;20029;-65
2022/05/05 04:25:28;;;;;;;13.10;5.55;;;7.80;99.90;;;;;;5053002;28;20041;-65
2022/05/05 04:27:54;;;;;;;11.75;6.38;;;7.80;99.90;;;;;;5052805;28;20033;-65
2022/05/05 04:30:21;;;;;;;12.32;6.60;;;7.70;99.90;;;;;;5052673;28;20044;-65
2022/05/05 04:32:47;;;;;;;14.65;7.07;;;7.70;99.90;;;;;;5052830;28;20511;-65
2022/05/05 04:35:15;;;;;;;13.88;6.72;;;7.70;99.90;;;;;;5052820;28;20025;-65
2022/05/05 04:37:41;;;;;;;12.48;6.57;;;7.70;99.90;;;;;;5052881;28;20061;-65
2022/05/05 04:40:08;;;;;;;12.95;7.05;;;7.70;99.90;;;;;;5052701;28;20515;-65
2022/05/05 04:42:34;;;;;;;14.17;7.03;;;7.70;99.90;;;;;;5052753;28;20373;-65
2022/05/05 04:45:00;;;;;;;11.35;5.57;;;7.70;99.90;;;;;;5052587;28;20108;-65
2022/05/05 04:47:26;;;;;;;9.75;5.60;;;7.70;99.90;;;;;;5052586;28;20049;-64
2022/05/05 04:49:55;;;;;;;10.43;6.38;;;7.70;99.90;;;;;;5052446;28;20033;-65
2022/05/05 04:52:21;;;;;;;12.77;6.43;;;7.70;99.90;;;;;;5052485;28;20448;-64
2022/05/05 04:54:46;;;;;;;14.75;6.55;;;7.70;99.90;;;;;;5052454;28;20037;-65
2022/05/05 04:57:12;;;;;;;14.82;6.18;;;7.80;99.90;;;;;;5052343;28;20033;-64
2022/05/05 04:59:37;;;;;;;13.93;6.57;;;7.80;99.90;;;;;;5052293;28;20094;-65
2022/05/05 05:02:03;;;;;;;11.90;5.93;;;7.80;99.90;;;;;;5034532;28;20091;-65
2022/05/05 05:04:30;;;;;;;14.30;7.10;;;7.90;99.90;;;;;;5052171;28;20041;-64
2022/05/05 05:06:56;;;;;;;12.38;6.80;;;8.00;99.90;;;;;;5052304;28;20503;-65
2022/05/05 05:09:21;;;;;;;11.70;5.88;;;8.10;99.90;;;;;;5052228;28;20112;-65
2022/05/05 05:11:47;;;;;;;12.75;5.80;;;8.10;99.90;;;;;;5051081;28;20040;-64
2022/05/05 05:14:13;;;;;;;12.77;6.13;;;8.10;99.90;;;;;;5052349;28;20045;-65
2022/05/05 05:16:38;;;;;;;10.90;5.60;;;8.20;99.90;;;;;;5052264;28;20037;-64
2022/05/05 05:19:05;;;;;;;9.60;5.43;;;8.20;99.90;;;;;;5052214;28;20041;-64
2022/05/05 05:21:31;;;;;;;11.60;5.43;;;8.20;99.90;;;;;;5054942;28;20413;-64
2022/05/05 05:23:57;;;;;;;11.15;5.43;;;8.30;99.90;;;;;;5056529;28;20040;-65
2022/05/05 05:26:23;;;;;;;13.65;6.30;;;8.30;99.90;;;;;;5056645;28;20466;-65
2022/05/05 05:28:48;;;;;;;15.90;6.03;;;8.30;99.90;;;;;;5038324;28;20124;-65
2022/05/05 05:31:14;;;;;;;11.57;5.78;;;8.50;99.90;;;;;;5056519;28;20477;-64
2022/05/05 05:33:40;;;;;;;13.70;6.13;;;8.50;99.90;;;;;;5056730;28;20031;-64
2022/05/05 05:36:06;;;;;;;12.35;6.03;;;8.50;99.90;;;;;;5056281;28;20136;-65
2022/05/05 05:38:31;;;;;;;13.45;5.45;;;8.50;99.90;;;;;;5054738;28;20041;-65
2022/05/05 05:40:57;;;;;;;11.48;6.38;;;8.60;99.90;;;;;;5054663;28;20033;-65
2022/05/05 05:43:23;;;;;;;13.45;5.68;;;8.70;99.90;;;;;;5055986;28;20045;-65
2022/05/05 05:45:48;;;;;;;10.95;5.50;;;8.80;99.90;;;;;;5056254;28;20032;-65
2022/05/05 05:48:14;;;;;;;12.35;6.10;;;8.80;99.90;;;;;;5056469;28;20045;-65
2022/05/05 05:50:40;;;;;;;13.05;6.05;;;8.90;99.90;;;;;;5055213;28;20035;-65
2022/05/05 05:53:06;;;;;;;9.55;5.43;;;9.00;99.90;;;;;;5056066;28;20529;-66
2022/05/05 05:55:32;;;;;;;11.60;6.43;;;9.10;99.90;;;;;;5054659;28;20037;-66
2022/05/05 05:57:58;;;;;;;11.35;5.63;;;9.20;99.90;;;;;;5055662;28;20025;-66
2022/05/05 06:00:24;;;;;;;8.68;5.03;;;9.30;99.90;;;;;;5055828;28;20041;-66
2022/05/05 06:09:08;;;;;;;9.73;5.78;;;9.70;99.90;;;;;;5031670;28;20037;-69
2022/05/05 06:11:35;;;;;;;11.18;5.30;;;9.80;99.90;;;;;;5035587;28;20087;-68
2022/05/05 06:14:04;;;;;;;14.02;6.63;;;9.90;99.90;;;;;;5035682;28;20485;-69
2022/05/05 06:16:30;;;;;;;10.90;5.70;;;10.00;99.90;;;;;;5035500;28;20454;-69
2022/05/05 06:18:56;;;;;;;10.15;5.13;;;10.10;99.90;;;;;;5017783;28;20130;-69
2022/05/05 06:21:21;;;;;;;10.00;5.75;;;10.20;99.90;;;;;;5035608;28;20033;-68
2022/05/05 06:23:47;;;;;;;10.88;4.70;;;10.20;99.90;;;;;;5035397;28;20375;-69
2022/05/05 06:26:13;;;;;;;9.43;5.63;;;10.30;99.90;;;;;;5035271;28;20038;-69
2022/05/05 06:28:39;;;;;;;12.10;5.82;;;10.40;99.90;;;;;;5035342;28;20116;-68
2022/05/05 06:31:05;;;;;;;9.65;5.45;;;10.40;99.90;;;;;;5035106;28;20164;-68
2022/05/05 06:33:30;;;;;;;10.98;5.22;;;10.50;99.90;;;;;;5035753;28;20108;-69
2022/05/05 06:35:56;;;;;;;11.02;5.10;;;10.50;99.90;;;;;;5035670;28;20434;-69
2022/05/05 06:38:23;;;;;;;8.50;5.28;;;10.50;99.90;;;;;;5036103;28;20057;-68
2022/05/05 06:40:49;;;;;;;9.32;5.10;;;10.60;99.90;;;;;;5034918;28;20033;-68
2022/05/05 06:43:15;;;;;;;9.93;5.20;;;10.70;99.90;;;;;;5017651;28;20033;-68
2022/05/05 06:45:41;;;;;;;9.70;5.20;;;10.70;99.90;;;;;;5035763;28;20033;-67
2022/05/05 06:48:07;;;;;;;9.20;5.00;;;10.80;99.90;;;;;;5017409;28;20512;-67
2022/05/05 06:50:32;;;;;;;10.50;6.07;;;10.80;99.90;;;;;;5034750;28;20037;-64
2022/05/05 06:53:00;;;;;;;9.27;4.78;;;10.90;99.90;;;;;;5048124;28;20021;-65
2022/05/05 06:55:26;;;;;;;11.43;5.50;;;10.90;99.90;;;;;;5035623;28;20064;-66
2022/05/05 06:57:52;;;;;;;9.02;5.05;;;11.00;99.90;;;;;;5035576;28;20042;-65
2022/05/05 07:00:18;;;;;;;8.90;5.13;;;11.00;99.90;;;;;;5035190;28;20132;-66
2022/05/05 07:02:43;;;;;;;8.98;4.63;;;11.10;99.90;;;;;;5054019;28;20045;-66
2022/05/05 07:05:28;;;;;;;9.00;4.55;;;11.20;99.90;;;;;;5054807;28;20123;-62
2022/05/05 07:08:14;;;;;;;8.70;4.57;;;11.20;99.90;;;;;;5044738;28;20378;-63
2022/05/05 07:10:52;;;;;;;7.43;4.50;;;11.20;99.90;;;;;;5052656;28;20094;-62
2022/05/05 07:13:18;;;;;;;8.45;4.88;;;11.30;99.90;;;;;;5061707;28;20504;-62
2022/05/05 07:15:44;;;;;;;9.35;4.88;;;11.30;99.90;;;;;;5074166;28;20040;-57
2022/05/05 07:18:09;;;;;;;10.25;4.75;;;11.40;99.90;;;;;;5074184;28;20082;-58
2022/05/05 07:20:35;;;;;;;9.73;4.68;;;11.40;99.90;;;;;;5074212;28;20043;-57
2022/05/05 07:23:01;;;;;;;7.60;4.13;;;11.50;99.90;;;;;;5073794;28;20040;-63
2022/05/05 07:25:26;;;;;;;8.00;5.38;;;11.60;99.90;;;;;;5064729;28;20466;-63
2022/05/05 07:27:52;;;;;;;6.78;5.03;;;11.60;99.90;;;;;;5054177;28;20040;-63
2022/05/05 07:30:19;;;;;;;7.72;4.57;;;11.60;99.90;;;;;;5056183;28;20033;-65
2022/05/05 07:32:44;;;;;;;8.60;4.47;;;11.70;99.90;;;;;;5054180;28;20055;-64
2022/05/05 07:35:14;;;;;;;6.80;4.15;;;11.70;99.90;;;;;;5054156;28;20100;-64
2022/05/05 07:37:39;;;;;;;8.55;4.50;;;11.80;99.90;;;;;;5060483;28;20040;-65
2022/05/05 07:40:07;;;;;;;9.52;4.70;;;11.90;99.90;;;;;;5036668;28;20045;-66
2022/05/05 07:42:33;;;;;;;6.85;4.75;;;12.00;99.90;;;;;;5057555;28;20082;-66
2022/05/05 07:44:59;;;;;;;8.57;4.72;;;12.10;99.90;;;;;;5073443;28;20028;-68
2022/05/05 07:47:25;;;;;;;8.40;4.72;;;12.30;99.90;;;;;;5056809;28;20094;-68
2022/05/05 07:49:51;;;;;;;7.13;4.10;;;12.50;99.90;;;;;;5053193;28;20040;-66
2022/05/05 07:52:17;;;;;;;6.78;4.05;;;12.40;99.90;;;;;;5054209;28;20032;-62
2022/05/05 07:54:43;;;;;;;7.53;3.60;;;12.40;99.90;;;;;;5047460;28;20385;-66
2022/05/05 07:57:13;;;;;;;9.05;4.07;;;12.50;99.90;;;;;;5034016;28;20045;-65
2022/05/05 07:59:40;;;;;;;6.90;4.13;;;12.60;99.90;;;;;;5043272;28;20047;-66
2022/05/05 08:02:13;;;;;;;7.80;4.10;;;12.70;99.90;;;;;;5053987;28;20035;-67
2022/05/05 08:04:38;;;;;;;6.28;3.92;;;12.70;99.90;;;;;;5053372;28;20095;-66
2022/05/05 08:07:04;;;;;;;14.38;4.05;;;12.80;99.90;;;;;;5053705;28;20077;-66
2022/05/05 08:09:30;;;;;;;4.53;3.25;;;13.00;99.90;;;;;;5053814;28;20029;-66
2022/05/05 08:11:56;;;;;;;6.53;3.63;;;12.90;99.90;;;;;;5053939;28;20572;-68
2022/05/05 08:14:21;;;;;;;5.93;3.95;;;13.00;99.90;;;;;;5052753;28;20539;-64
2022/05/05 08:16:47;;;;;;;4.15;3.17;;;13.10;99.90;;;;;;5061547;28;20037;-64
2022/05/05 08:19:13;;;;;;;5.68;3.95;;;13.10;99.90;;;;;;5038014;28;20397;-66
2022/05/05 08:21:38;;;;;;;6.22;3.63;;;13.30;99.90;;;;;;5045493;28;20076;-66
2022/05/05 08:29:33;;;;;;;5.03;3.00;;;13.80;99.90;;;;;;5038695;28;20044;-61
2022/05/05 08:31:58;;;;;;;4.57;3.65;;;14.00;99.90;;;;;;5040085;28;20401;-65
2022/05/05 08:34:24;;;;;;;5.13;2.90;;;14.10;99.90;;;;;;5033481;28;20445;-66
2022/05/05 08:36:53;;;;;;;3.40;2.40;;;14.40;99.90;;;;;;5047880;28;20536;-64
2022/05/05 08:39:19;;;;;;;4.15;2.38;;;14.60;99.50;;;;;;5049298;28;20044;-65
2022/05/05 08:41:46;;;;;;;5.95;2.60;;;14.70;99.90;;;;;;5039268;28;20410;-66
2022/05/05 08:44:12;;;;;;;7.03;2.95;;;14.50;99.70;;;;;;5033582;28;20338;-63
2022/05/05 08:46:41;;;;;;;2.95;2.45;;;14.70;99.50;;;;;;5033029;28;20034;-62
2022/05/05 08:49:08;;;;;;;3.33;2.00;;;14.70;99.90;;;;;;5018413;28;20032;-63
2022/05/05 08:51:53;;;;;;;3.90;2.35;;;14.90;98.70;;;;;;5050798;28;20044;-64
2022/05/05 08:54:23;;;;;;;5.05;2.88;;;15.20;98.50;;;;;;5052852;28;20064;-66
2022/05/05 08:56:49;;;;;;;3.45;2.20;;;15.20;98.30;;;;;;5045943;28;20040;-65
2022/05/05 08:59:19;;;;;;;4.10;2.45;;;15.60;98.00;;;;;;5033269;28;20063;-67
2022/05/05 09:01:44;;;;;;;3.22;2.22;;;15.80;96.80;;;;;;5042092;28;20034;-64
2022/05/05 09:04:12;;;;;;;2.40;2.20;;;16.00;96.50;;;;;;5048935;28;20464;-66
2022/05/05 09:06:51;;;;;;;5.32;2.22;;;15.90;95.30;;;;;;5039228;28;20045;-66
2022/05/05 09:09:24;;;;;;;2.63;2.20;;;15.70;95.80;;;;;;5039377;28;20044;-64
2022/05/05 09:12:16;;;;;;;3.25;2.10;;;15.70;96.20;;;;;;5028008;28;20144;-64
2022/05/05 09:14:50;;;;;;;2.72;1.75;;;15.80;95.20;;;;;;5047860;28;20041;-64
2022/05/05 09:17:18;;;;;;;2.42;2.20;;;15.50;95.80;;;;;;5034371;28;20188;-67
2022/05/05 09:19:45;;;;;;;;;;;15.60;95.50;;;;;;5038862;28;20486;-65
2022/05/05 09:22:12;;;;;;;1.92;1.77;;;16.00;95.90;;;;;;5046755;28;19917;-65
2022/05/05 09:24:43;;;;;;;3.90;2.28;;;16.30;93.90;;;;;;5035013;28;20476;-61
2022/05/05 09:27:29;;;;;;;3.38;1.80;;;16.80;94.20;;;;;;5051562;28;20037;-62
2022/05/05 09:30:06;;;;;;;2.70;2.10;;;17.20;93.70;;;;;;5052347;28;20516;-64
2022/05/05 09:32:33;;;;;;;2.72;2.30;;;17.10;92.20;;;;;;5040566;28;20348;-63
2022/05/05 09:35:02;;;;;;;2.80;2.45;;;16.90;92.50;;;;;;5048510;28;20059;-68
2022/05/05 09:37:30;;;;;;;5.30;2.45;;;17.00;92.60;;;;;;5050907;28;20040;-66
2022/05/05 09:39:59;;;;;;;;;;;17.10;92.50;;;;;;5046812;28;20381;-66
2022/05/05 09:42:41;;;;;;;2.88;2.35;;;16.60;92.00;;;;;;5047486;28;19960;-67
2022/05/05 09:45:13;;;;;;;3.33;2.60;;;16.50;92.80;;;;;;5048814;28;20074;-67
2022/05/05 09:47:41;;;;;;;3.10;2.45;;;16.80;93.40;;;;;;5065361;28;20033;-67
2022/05/05 09:50:07;;;;;;;3.35;1.67;;;17.50;91.80;;;;;;5063342;28;20032;-66
2022/05/05 09:58:12;;;;;;;2.40;2.13;;;17.40;89.50;;;;;;5047284;28;20099;-68
2022/05/05 10:00:45;;;;;;;2.35;1.77;;;17.10;90.50;;;;;;5050251;28;20389;-70
2022/05/05 10:06:06;;;;;;;2.28;1.67;;;17.70;90.40;;;;;;5037489;28;20048;-64
2022/05/05 10:08:43;;;;;;;2.63;1.60;;;17.50;90.20;;;;;;5055970;28;20087;-65
2022/05/05 10:11:09;;;;;;;;;;;16.90;90.90;;;;;;5055734;28;20076;-63
2022/05/05 10:13:37;;;;;;;4.82;1.77;;;16.50;91.20;;;;;;5056012;28;20360;-63
2022/05/05 10:16:03;;;;;;;;;;;16.40;92.80;;;;;;5047452;28;20033;-63
2022/05/05 10:18:29;;;;;;;1.50;1.40;;;17.10;92.10;;;;;;5055414;28;19905;-63
2022/05/05 10:20:57;;;;;;;2.75;1.55;;;18.20;91.20;;;;;;5055329;28;20107;-64
2022/05/05 10:23:41;;;;;;;4.00;2.22;;;19.60;90.50;;;;;;5048794;28;20021;-64
2022/05/05 10:26:08;;;;;;;2.38;2.03;;;20.20;86.60;;;;;;5055553;28;20029;-61
2022/05/05 10:28:41;;;;;;;2.20;1.77;;;20.50;84.40;;;;;;5054956;28;20112;-62
2022/05/05 10:31:31;;;;;;;1.73;1.60;;;20.10;85.70;;;;;;5055439;28;20036;-65
2022/05/05 10:34:02;;;;;;;1.92;1.70;;;19.40;84.80;;;;;;5055513;28;20029;-66
2022/05/05 10:36:29;;;;;;;1.80;1.70;;;18.70;85.50;;;;;;5055833;28;20187;-64
2022/05/05 10:38:55;;;;;;;3.35;2.05;;;18.60;88.80;;;;;;5055235;28;20102;-65
2022/05/05 10:41:41;;;;;;;2.60;1.63;;;19.10;87.40;;;;;;5055238;28;20041;-65
2022/05/05 10:44:22;;;;;;;2.15;1.40;;;19.60;85.10;;;;;;5054544;28;20036;-61
2022/05/05 10:46:58;;;;;;;1.58;1.25;;;20.30;84.70;;;;;;5055387;28;20037;-64
2022/05/05 10:49:32;;;;;;;2.75;1.85;;;20.80;80.60;;;;;;5053554;28;20037;-68
2022/05/05 10:52:10;;;;;;;1.98;1.77;;;21.20;79.40;;;;;;5049930;28;20024;-67
2022/05/05 10:54:48;;;;;;;1.58;1.23;;;20.90;79.60;;;;;;5054935;28;20033;-65
2022/05/05 10:57:25;;;;;;;2.67;1.70;;;21.10;76.60;;;;;;5055346;28;20040;-66
2022/05/05 11:00:11;;;;;;;3.55;1.48;;;21.60;76.90;;;;;;5055105;28;20045;-67
2022/05/05 11:02:40;;;;;;;3.58;1.65;;;22.10;73.20;;;;;;5055111;28;20493;-65
2022/05/05 11:05:27;;;;;;;1.55;1.45;;;22.70;71.50;;;;;;5054843;28;20048;-65
2022/05/05 11:07:54;;;;;;;1.92;1.55;;;22.70;70.10;;;;;;5053515;28;20404;-64
2022/05/05 11:10:42;;;;;;;3.45;1.83;;;22.20;71.90;;;;;;5045073;28;20029;-66
2022/05/05 11:13:28;;;;;;;2.00;1.70;;;22.00;71.10;;;;;;5054361;28;20057;-65
2022/05/05 11:21:36;;;;;;;3.10;1.80;;;21.50;73.50;;;;;;5055143;28;20052;-67
2022/05/05 11:24:02;;;;;;;3.45;1.80;;;21.90;72.80;;;;;;5055115;28;20538;-67
2022/05/05 11:26:29;;;;;;;3.72;1.80;;;21.70;71.30;;;;;;5045334;28;20497;-67
2022/05/05 11:28:58;;;;;;;2.85;1.83;;;21.10;70.80;;;;;;5054498;28;20045;-67
2022/05/05 11:31:27;;;;;;;1.95;1.65;;;20.80;73.40;;;;;;5054406;28;20044;-67
2022/05/05 11:33:55;;;;;;;2.00;1.40;;;21.00;76.10;;;;;;5054199;28;20060;-68
2022/05/05 11:36:21;;;;;;;;;;;21.60;72.60;;;;;;5054636;28;20397;-67
2022/05/05 11:38:47;;;;;;;1.98;1.35;;;22.40;70.90;;;;;;5041622;28;20431;-72
2022/05/05 11:41:18;;;;;;;1.75;1.50;;;22.30;70.20;;;;;;5047178;28;20041;-70
2022/05/05 11:46:29;;;;;;;3.40;1.50;;;22.90;70.20;;;;;;5052700;28;20084;-68
2022/05/05 11:48:56;;;;;;;1.52;1.42;;;22.80;66.00;;;;;;5054290;28;20040;-67
2022/05/05 11:51:27;;;;;;;4.53;1.90;;;22.30;64.30;;;;;;5054896;28;20064;-70
2022/05/05 11:54:08;;;;;;;5.28;3.15;;;22.10;67.60;;;;;;5037314;28;20029;-67
2022/05/05 11:56:36;;;;;;;2.70;1.92;;;21.50;69.10;;;;;;5049579;28;20043;-67
2022/05/05 12:05:01;;;;;;;3.42;1.60;;;22.30;67.30;;;;;;5040697;28;19939;-64
2022/05/05 12:07:27;;;;;;;1.95;1.38;;;21.80;63.20;;;;;;5044911;28;20056;-67
2022/05/05 12:09:58;;;;;;;2.88;1.95;;;21.30;69.90;;;;;;5054041;28;20050;-71
2022/05/05 12:12:27;;;;;;;2.20;1.48;;;20.80;70.10;;;;;;5053009;28;20029;-70
2022/05/05 12:15:05;;;;;;;1.58;1.48;;;20.70;74.40;;;;;;5053957;28;20124;-66
2022/05/05 12:17:41;;;;;;;1.88;1.60;;;20.40;71.30;;;;;;5053980;28;20040;-66
2022/05/05 12:20:09;;;;;;;2.05;1.65;;;20.50;73.80;;;;;;5053663;28;20040;-66
2022/05/05 12:22:40;;;;;;;2.17;1.70;;;21.70;75.30;;;;;;5053750;28;20037;-66
2022/05/05 12:25:14;;;;;;;2.33;1.40;;;22.30;72.30;;;;;;5053835;28;20037;-69
2022/05/05 12:27:41;;;;;;;4.15;1.50;;;22.90;66.00;;;;;;5053329;28;20040;-65
2022/05/05 12:30:08;;;;;;;2.03;1.30;;;24.60;69.90;;;;;;5053595;28;20528;-67
2022/05/05 12:32:34;;;;;;;3.60;1.58;;;24.90;64.10;;;;;;5051358;28;20139;-65
2022/05/05 12:35:10;;;;;;;1.92;1.65;;;25.10;61.50;;;;;;5053696;28;20039;-67
2022/05/05 12:37:37;;;;;;;2.33;1.20;;;25.30;60.40;;;;;;5053595;28;20115;-67
2022/05/05 12:40:06;;;;;;;5.78;1.17;;;25.20;59.60;;;;;;5035271;28;20344;-67
2022/05/05 12:42:48;;;;;;;2.30;1.40;;;25.40;59.10;;;;;;5035491;28;20041;-64
2022/05/05 12:45:28;;;;;;;1.88;1.23;;;25.60;59.50;;;;;;5053248;28;20141;-67
2022/05/05 12:47:58;;;;;;;1.52;0.90;;;26.20;58.60;;;;;;5015165;28;20087;-67
2022/05/05 12:50:41;;;;;;;2.45;1.33;;;25.30;56.30;;;;;;5033071;28;20029;-67
2022/05/05 13:01:24;;;;;;;2.20;1.27;;;24.40;58.10;;;;;;5047786;28;20031;-62
2022/05/05 13:03:53;;;;;;;1.85;1.30;;;24.30;61.40;;;;;;5045773;28;20390;-65
2022/05/05 13:06:18;;;;;;;3.50;1.40;;;24.70;59.30;;;;;;5004504;28;20051;-64
2022/05/05 13:08:46;;;;;;;2.67;1.98;;;25.70;53.50;;;;;;5036665;28;20505;-64
2022/05/05 13:24:43;;;;;;;1.50;1.05;;;23.80;60.20;;;;;;2946406;26;20041;-64
2022/05/05 13:27:08;;;;;;;2.45;1.20;;;23.70;58.40;;;;;;5032093;28;20038;-65
2022/05/05 13:29:34;;;;;;;1.20;1.10;;;23.40;57.50;;;;;;5032842;28;20524;-64
2022/05/05 13:31:59;;;;;;;1.50;1.30;;;22.90;59.00;;;;;;5032773;28;20045;-65
2022/05/05 13:34:25;;;;;;;3.47;1.20;;;22.40;57.90;;;;;;5033031;28;20033;-64
2022/05/05 13:36:51;;;;;;;3.45;1.52;;;22.40;61.80;;;;;;5032969;28;20033;-64
2022/05/05 13:39:17;;;;;;;0.85;0.85;;;22.20;61.00;;;;;;5032989;28;20041;-64
2022/05/05 13:41:43;;;;;;;1.52;1.02;;;22.20;61.40;;;;;;5034014;28;20030;-64
2022/05/05 13:44:09;;;;;;;2.25;1.45;;;22.50;60.80;;;;;;5036732;28;20041;-64
2022/05/05 13:46:38;;;;;;;2.50;1.40;;;22.10;58.20;;;;;;5036445;28;20037;-64
2022/05/05 13:49:08;;;;;;;1.45;1.20;;;21.80;62.80;;;;;;5036606;28;20377;-64
2022/05/05 13:51:34;;;;;;;1.45;1.30;;;21.90;60.10;;;;;;5036715;28;20061;-64
2022/05/05 13:54:00;;;;;;;1.90;0.90;;;21.90;67.40;;;;;;5018754;28;20061;-64
2022/05/05 13:56:25;;;;;;;1.23;1.00;;;22.40;63.80;;;;;;5018808;28;20044;-63
2022/05/05 13:58:51;;;;;;;2.63;1.05;;;23.10;61.30;;;;;;5036630;28;20100;-64